Time;durP1;ratioP1;P1;durP2;ratioP2;P2;SDS_P1;SDS_P2;PMS_P1;PMS_P2;Temp;Humidity;BMP_temperature;BMP_pressure;BME280_temperature;BME280_humidity;BME280_pressure;Samples;Min_cycle;Max_cycle;Signal;HPM_P1;HPM_P2
2022/01/15 00:00:29;;;;;;;59.33;23.13;;;3.00;99.90;;;3.75;100.00;102219.69;5057530;28;20033;-82
2022/01/15 00:02:56;;;;;;;56.65;20.98;;;3.00;99.90;;;3.77;100.00;102216.63;5055172;28;20036;-83
2022/01/15 00:05:22;;;;;;;51.55;20.58;;;3.00;99.90;;;3.76;100.00;102203.94;5057889;28;20032;-82
2022/01/15 00:07:50;;;;;;;45.17;19.48;;;3.10;99.90;;;3.74;100.00;102206.97;5056293;28;20033;-81
2022/01/15 00:10:21;;;;;;;44.30;18.85;;;3.10;99.90;;;3.64;100.00;102212.47;5055929;28;20033;-84
2022/01/15 00:12:48;;;;;;;50.00;19.50;;;3.00;99.90;;;3.61;100.00;102213.88;5056632;28;20108;-82
2022/01/15 00:15:27;;;;;;;42.17;18.60;;;3.00;99.90;;;3.65;100.00;102203.94;5056494;28;20477;-83
2022/01/15 00:17:59;;;;;;;42.97;17.17;;;3.00;99.90;;;3.71;100.00;102194.53;5056097;28;20025;-82
2022/01/15 00:20:28;;;;;;;42.63;16.92;;;3.00;99.90;;;3.75;100.00;102192.06;5057653;28;20469;-82
2022/01/15 00:22:58;;;;;;;50.25;20.73;;;3.00;99.90;;;3.70;100.00;102183.75;5056116;28;20025;-81
2022/01/15 00:25:30;;;;;;;44.60;20.52;;;3.00;99.90;;;3.72;100.00;102178.78;5076384;28;20111;-84
2022/01/15 00:27:59;;;;;;;42.55;18.38;;;3.00;99.90;;;3.69;100.00;102182.09;5077463;28;20029;-80
2022/01/15 00:30:26;;;;;;;34.42;16.33;;;3.00;99.90;;;3.72;100.00;102184.31;5059272;28;20059;-85
2022/01/15 00:32:53;;;;;;;39.38;17.23;;;3.00;99.90;;;3.75;100.00;102183.78;5059175;28;20032;-85
2022/01/15 00:35:23;;;;;;;41.42;17.92;;;3.00;99.90;;;3.73;100.00;102178.50;5076540;28;20103;-83
2022/01/15 00:37:50;;;;;;;43.28;17.65;;;3.00;99.90;;;3.80;100.00;102169.09;5058552;28;20431;-82
2022/01/15 00:40:20;;;;;;;34.72;16.77;;;3.10;99.90;;;3.81;100.00;102163.31;5058494;28;20032;-81
2022/01/15 00:42:47;;;;;;;39.97;16.95;;;3.10;99.90;;;3.81;100.00;102170.78;5074739;28;20028;-83
2022/01/15 00:45:21;;;;;;;41.92;17.40;;;3.10;99.90;;;3.71;100.00;102163.31;5058492;28;20048;-81
2022/01/15 00:47:53;;;;;;;39.33;17.98;;;3.10;99.90;;;3.76;100.00;102156.97;5058511;28;20025;-83
2022/01/15 00:50:20;;;;;;;45.60;19.40;;;3.10;99.90;;;3.71;100.00;102147.56;5059523;28;20033;-83
2022/01/15 00:52:47;;;;;;;42.38;17.55;;;3.10;99.90;;;3.79;100.00;102140.63;5075051;28;20033;-83
2022/01/15 00:55:15;;;;;;;44.75;19.77;;;3.10;99.90;;;3.81;100.00;102156.94;5076817;28;20582;-84
2022/01/15 00:57:42;;;;;;;39.75;16.40;;;3.10;99.90;;;3.82;100.00;102164.16;5058688;28;20021;-84
2022/01/15 01:00:14;;;;;;;42.92;18.17;;;3.10;99.90;;;3.79;100.00;102156.41;5059413;28;20024;-83
2022/01/15 01:02:39;;;;;;;38.78;17.38;;;3.10;99.90;;;3.67;100.00;102145.63;5076550;28;20400;-83
2022/01/15 01:05:07;;;;;;;38.10;16.25;;;3.10;99.90;;;3.77;100.00;102148.38;5058822;28;20033;-85
2022/01/15 01:07:33;;;;;;;38.53;17.02;;;3.10;99.90;;;3.79;100.00;102148.13;5058442;28;20105;-84
2022/01/15 01:21:01;;;;;;;37.58;17.40;;;3.10;99.90;;;3.82;100.00;102134.53;5077035;28;20121;-85
2022/01/15 01:23:08;;;;;;;34.92;15.40;;;3.10;99.90;;;3.85;100.00;102133.19;5075921;28;20028;-83
2022/01/15 01:25:41;;;;;;;31.73;16.00;;;3.10;99.90;;;3.82;100.00;102130.97;5058214;28;20405;-84
2022/01/15 01:28:13;;;;;;;30.10;16.08;;;3.10;99.90;;;3.77;100.00;102131.78;5076751;28;20043;-85
2022/01/15 01:31:01;;;;;;;38.80;16.98;;;3.10;99.90;;;3.73;100.00;102126.00;5075239;28;20098;-84
2022/01/15 01:33:33;;;;;;;38.95;16.45;;;3.10;99.90;;;3.84;100.00;102117.69;5073130;28;20467;-85
2022/01/15 01:38:37;;;;;;;35.47;16.63;;;3.20;99.90;;;3.89;100.00;102125.97;5075233;28;20044;-84
2022/01/15 01:41:06;;;;;;;34.33;15.10;;;3.20;99.90;;;3.87;100.00;102125.44;5073885;28;20025;-84
2022/01/15 01:48:45;;;;;;;36.42;16.15;;;3.20;99.90;;;3.89;100.00;102117.69;5075872;28;20029;-83
2022/01/15 01:51:31;;;;;;;29.92;14.80;;;3.20;99.90;;;3.91;100.00;102113.56;5057028;28;20041;-79
2022/01/15 01:54:02;;;;;;;36.40;16.20;;;3.20;99.90;;;3.85;100.00;102111.91;5075149;28;20024;-83
2022/01/15 01:56:29;;;;;;;38.17;17.27;;;3.20;99.90;;;3.85;100.00;102111.91;5079865;28;20039;-86
2022/01/15 01:58:56;;;;;;;32.83;15.38;;;3.20;99.90;;;3.93;100.00;102114.09;5079482;28;20086;-81
2022/01/15 02:01:23;;;;;;;31.13;14.93;;;3.20;99.90;;;4.04;100.00;102106.63;5075057;28;20127;-84
2022/01/15 02:03:49;;;;;;;32.08;14.23;;;3.30;99.90;;;4.43;100.00;102098.50;5074902;28;20032;-84
2022/01/15 02:06:17;;;;;;;31.70;16.75;;;3.30;99.90;;;4.59;100.00;102100.09;5056651;28;20123;-85
2022/01/15 02:08:51;;;;;;;32.33;14.40;;;3.30;99.90;;;4.61;100.00;102107.00;5056612;28;20040;-82
2022/01/15 02:11:18;;;;;;;29.83;14.23;;;3.30;99.90;;;4.65;100.00;102099.81;5075736;28;20120;-83
2022/01/15 02:13:46;;;;;;;31.75;15.57;;;3.30;99.90;;;4.65;100.00;102104.50;5056924;28;20500;-83
2022/01/15 02:16:15;;;;;;;29.23;14.88;;;3.40;99.90;;;4.71;100.00;102095.06;5057091;28;20024;-83
2022/01/15 02:18:42;;;;;;;30.83;16.35;;;3.40;99.90;;;4.70;100.00;102098.94;5056439;28;20067;-83
2022/01/15 02:23:44;;;;;;;32.28;15.45;;;3.30;99.90;;;4.61;100.00;102087.63;5074272;28;20039;-88
2022/01/15 02:26:17;;;;;;;34.10;14.27;;;3.30;99.90;;;4.64;100.00;102081.53;5075037;28;20020;-86
2022/01/15 02:28:59;;;;;;;34.90;15.30;;;3.30;99.90;;;4.64;100.00;102078.75;5078306;28;20032;-84
2022/01/15 02:31:28;;;;;;;32.40;14.05;;;3.30;99.90;;;4.70;100.00;102087.84;5077196;28;20036;-84
2022/01/15 02:34:00;;;;;;;33.88;15.65;;;3.30;99.90;;;4.73;100.00;102082.59;5075908;28;20020;-83
2022/01/15 02:36:37;;;;;;;28.90;13.95;;;3.40;99.90;;;4.75;100.00;102066.50;5077437;28;20029;-81
2022/01/15 02:39:05;;;;;;;36.10;15.55;;;3.40;99.90;;;4.76;100.00;102076.47;5059387;28;20098;-84
2022/01/15 02:41:39;;;;;;;31.70;14.80;;;3.40;99.90;;;4.64;100.00;102076.00;5059347;28;20102;-82
2022/01/15 02:44:15;;;;;;;29.95;14.80;;;3.40;99.90;;;4.67;100.00;102074.59;5058682;28;20059;-84
2022/01/15 02:49:13;;;;;;;30.08;14.40;;;3.40;99.90;;;4.81;100.00;102069.28;5076706;28;20029;-83
2022/01/15 02:51:39;;;;;;;29.98;14.52;;;3.40;99.90;;;4.74;100.00;102064.03;5060049;28;20547;-83
2022/01/15 02:54:06;;;;;;;27.88;14.02;;;3.50;99.90;;;4.78;100.00;102067.91;5059604;28;20119;-82
2022/01/15 02:56:37;;;;;;;29.23;14.52;;;3.50;99.90;;;4.79;100.00;102053.75;5059353;28;20472;-83
2022/01/15 02:59:08;;;;;;;31.15;14.07;;;3.50;99.90;;;4.84;100.00;102050.16;5059101;28;20024;-83
2022/01/15 03:01:35;;;;;;;29.38;14.60;;;3.50;99.90;;;4.78;100.00;102060.41;5075521;28;20039;-84
2022/01/15 03:04:02;;;;;;;26.63;13.15;;;3.50;99.90;;;4.81;100.00;102056.25;5060062;28;20051;-82
2022/01/15 03:06:30;;;;;;;30.20;14.13;;;3.50;99.90;;;4.83;100.00;102054.03;5060090;28;20129;-82
2022/01/15 03:08:56;;;;;;;29.63;14.15;;;3.50;99.90;;;4.84;100.00;102052.91;5077022;28;20029;-83
2022/01/15 03:11:23;;;;;;;27.73;13.73;;;3.50;99.90;;;4.80;100.00;102046.28;5059544;28;20047;-83
2022/01/15 03:13:50;;;;;;;27.13;14.32;;;3.50;99.90;;;4.71;100.00;102048.84;5075907;28;20028;-81
2022/01/15 03:16:21;;;;;;;26.58;14.60;;;3.50;99.90;;;4.73;100.00;102041.06;5077253;28;20025;-82
2022/01/15 03:18:49;;;;;;;26.35;13.23;;;3.50;99.90;;;4.78;100.00;102032.72;5059004;28;20025;-82
2022/01/15 03:21:23;;;;;;;30.38;15.43;;;3.50;99.90;;;4.76;100.00;102026.66;5059007;28;20143;-81
2022/01/15 03:23:49;;;;;;;29.48;14.40;;;3.50;99.90;;;4.75;100.00;102027.75;5075332;28;20127;-83
2022/01/15 03:26:15;;;;;;;29.98;14.32;;;3.50;99.90;;;4.78;100.00;102029.16;5055208;28;20112;-83
2022/01/15 03:28:43;;;;;;;34.85;15.98;;;3.50;99.90;;;4.74;100.00;102019.75;5056224;28;20120;-83
2022/01/15 03:31:09;;;;;;;27.95;15.85;;;3.50;99.90;;;4.79;100.00;102022.47;5056710;28;20025;-83
2022/01/15 03:33:36;;;;;;;28.88;15.45;;;3.60;99.90;;;4.84;100.00;102016.09;5056411;28;20351;-82
2022/01/15 03:36:02;;;;;;;30.80;15.57;;;3.50;99.90;;;4.83;100.00;102026.34;5054848;28;20039;-81
2022/01/15 03:38:28;;;;;;;32.17;15.63;;;3.60;99.90;;;4.70;100.00;102018.66;5071778;28;20032;-83
2022/01/15 03:40:54;;;;;;;28.73;14.93;;;3.60;99.90;;;4.79;100.00;102011.41;5055248;28;20029;-81
2022/01/15 03:43:22;;;;;;;29.98;14.35;;;3.60;99.90;;;4.82;100.00;102010.03;5055027;28;20111;-82
2022/01/15 03:45:48;;;;;;;33.83;15.70;;;3.60;99.90;;;4.76;100.00;102009.22;5071837;28;20040;-81
2022/01/15 03:48:14;;;;;;;30.95;14.45;;;3.60;99.90;;;4.84;100.00;102008.63;5054851;28;20036;-81
2022/01/15 03:50:40;;;;;;;28.70;14.20;;;3.60;99.90;;;4.88;100.00;102015.22;5054712;28;20135;-81
2022/01/15 03:53:06;;;;;;;32.63;15.43;;;3.60;99.90;;;4.89;100.00;102008.56;5054538;28;20378;-83
2022/01/15 03:55:32;;;;;;;31.10;15.30;;;3.60;99.90;;;4.73;100.00;102007.84;5071510;28;20056;-82
2022/01/15 03:58:00;;;;;;;29.95;15.10;;;3.60;99.90;;;4.79;100.00;102005.88;5055039;28;20025;-82
2022/01/15 04:00:27;;;;;;;32.65;15.32;;;3.60;99.90;;;4.73;100.00;101999.53;5054072;28;20083;-82
2022/01/15 04:02:56;;;;;;;27.38;13.65;;;3.60;99.90;;;4.72;100.00;101988.75;5071226;28;20033;-80
2022/01/15 04:05:25;;;;;;;35.10;15.52;;;3.60;99.90;;;4.64;100.00;101992.13;5054753;28;20029;-80
2022/01/15 04:07:51;;;;;;;32.53;14.98;;;3.50;99.90;;;4.57;100.00;101992.44;5055941;28;20572;-83
2022/01/15 04:10:18;;;;;;;38.22;15.55;;;3.50;99.90;;;4.68;100.00;101987.69;5056055;28;20025;-83
2022/01/15 04:12:45;;;;;;;34.13;14.93;;;3.50;99.90;;;4.52;100.00;101977.81;5059084;28;20115;-86
2022/01/15 04:15:15;;;;;;;35.20;16.50;;;3.50;99.90;;;4.60;100.00;101980.81;5060484;28;20119;-80
2022/01/15 04:17:45;;;;;;;35.58;15.68;;;3.50;99.90;;;4.62;100.00;101972.22;5054119;28;20033;-80
2022/01/15 04:20:12;;;;;;;34.10;15.13;;;3.50;99.90;;;4.56;100.00;101973.38;5053650;28;20025;-81
2022/01/15 04:22:38;;;;;;;37.25;16.35;;;3.50;99.90;;;4.62;100.00;101977.78;5054131;28;20064;-83
2022/01/15 04:25:05;;;;;;;34.70;13.98;;;3.50;99.90;;;4.67;100.00;101975.78;5056437;28;20105;-82
2022/01/15 04:27:31;;;;;;;31.80;16.02;;;3.50;99.90;;;4.54;100.00;101968.13;5057263;28;20349;-82
2022/01/15 04:30:01;;;;;;;34.30;14.88;;;3.50;99.90;;;4.65;100.00;101974.44;5075702;28;20044;-82
2022/01/15 04:32:27;;;;;;;34.17;14.60;;;3.50;99.90;;;4.63;100.00;101963.63;5056121;28;20082;-83
2022/01/15 04:34:52;;;;;;;33.47;14.90;;;3.50;99.90;;;4.72;100.00;101972.13;5074535;28;20029;-82
2022/01/15 04:37:23;;;;;;;32.70;13.77;;;3.50;99.90;;;4.64;100.00;101962.53;5056767;28;20438;-83
2022/01/15 04:39:49;;;;;;;26.55;11.73;;;3.50;99.90;;;4.69;100.00;101954.19;5057194;28;20512;-82
2022/01/15 04:42:16;;;;;;;23.52;10.43;;;3.50;99.90;;;4.61;100.00;101952.03;5074578;28;20040;-83
2022/01/15 04:44:42;;;;;;;25.58;10.32;;;3.50;99.90;;;4.61;100.00;101954.81;5056602;28;20492;-81
2022/01/15 04:47:08;;;;;;;23.25;9.77;;;3.60;99.90;;;4.75;100.00;101950.25;5073366;28;20519;-84
2022/01/15 04:49:34;;;;;;;20.88;10.00;;;3.50;99.90;;;4.61;100.00;101953.97;5073534;28;20036;-81
2022/01/15 04:52:02;;;;;;;20.30;10.38;;;3.50;99.90;;;4.63;100.00;101948.97;5055640;28;20032;-82
2022/01/15 04:54:28;;;;;;;19.77;10.38;;;3.50;99.90;;;4.65;100.00;101941.22;5055666;28;20021;-81
2022/01/15 04:56:54;;;;;;;19.38;8.95;;;3.50;99.90;;;4.64;100.00;101945.91;5073638;28;20503;-81
2022/01/15 04:59:20;;;;;;;14.07;7.93;;;3.50;99.90;;;4.26;100.00;101943.94;5072332;28;20073;-81
2022/01/15 05:01:47;;;;;;;13.60;7.68;;;3.40;99.90;;;4.33;100.00;101938.94;5055447;28;20036;-82
2022/01/15 05:04:13;;;;;;;15.82;7.65;;;3.40;99.90;;;4.44;100.00;101940.50;5055687;28;20411;-81
2022/01/15 05:06:39;;;;;;;13.57;7.70;;;3.40;99.90;;;4.49;100.00;101940.50;5055211;28;20075;-81
2022/01/15 05:09:06;;;;;;;12.77;6.90;;;3.40;99.90;;;4.41;100.00;101940.25;5073645;28;20111;-83
2022/01/15 05:14:15;;;;;;;18.45;8.93;;;3.40;99.90;;;4.15;100.00;101940.38;5073829;28;20024;-81
2022/01/15 05:16:41;;;;;;;17.10;8.75;;;3.40;99.90;;;3.99;100.00;101941.56;5055436;28;20066;-81
2022/01/15 05:19:07;;;;;;;13.77;8.23;;;3.30;99.90;;;4.01;100.00;101939.38;5072877;28;20039;-82
2022/01/15 05:21:33;;;;;;;15.77;9.13;;;3.30;99.90;;;3.96;100.00;101925.56;5073930;28;20028;-82
2022/01/15 05:24:00;;;;;;;14.40;8.75;;;3.30;99.90;;;3.96;100.00;101936.59;5055766;28;20148;-82
2022/01/15 05:26:26;;;;;;;19.67;9.30;;;3.30;99.90;;;3.93;100.00;101931.66;5052468;28;20492;-81
2022/01/15 05:28:52;;;;;;;19.20;10.15;;;3.20;99.90;;;3.79;100.00;101927.81;5053204;28;20029;-84
2022/01/15 05:31:18;;;;;;;16.58;10.05;;;3.20;99.90;;;3.84;100.00;101938.03;5055705;28;20033;-80
2022/01/15 05:33:43;;;;;;;17.40;9.55;;;3.20;99.90;;;3.89;100.00;101925.03;5053073;28;20033;-83
2022/01/15 05:36:10;;;;;;;16.95;9.98;;;3.20;99.90;;;3.89;100.00;101926.94;5053332;28;20037;-79
2022/01/15 05:38:35;;;;;;;17.58;9.73;;;3.20;99.90;;;3.78;100.00;101926.19;5053825;28;20025;-82
2022/01/15 05:41:01;;;;;;;16.75;8.55;;;3.20;99.90;;;3.63;100.00;101932.56;5053294;28;20109;-80
2022/01/15 05:43:27;;;;;;;15.30;8.57;;;3.10;99.90;;;3.44;100.00;101928.75;5057249;28;20032;-81
2022/01/15 05:45:53;;;;;;;18.42;8.13;;;3.10;99.90;;;3.56;100.00;101931.22;5073892;28;20452;-82
2022/01/15 05:48:19;;;;;;;19.15;9.10;;;3.00;99.90;;;3.49;100.00;101933.47;5054694;28;20375;-82
2022/01/15 05:50:45;;;;;;;16.65;8.95;;;3.00;99.90;;;3.52;100.00;101935.66;5053355;28;20461;-80
2022/01/15 05:53:11;;;;;;;15.82;9.05;;;3.00;99.90;;;3.55;100.00;101926.81;5053232;28;20120;-81
2022/01/15 05:55:37;;;;;;;19.00;9.75;;;3.00;99.90;;;3.50;100.00;101935.13;5054534;28;20028;-84
2022/01/15 05:58:02;;;;;;;19.23;11.15;;;3.00;99.90;;;3.45;100.00;101921.31;5053443;28;20123;-83
2022/01/15 06:00:28;;;;;;;18.20;10.02;;;2.90;99.90;;;3.42;100.00;101922.69;5055412;28;20108;-82
2022/01/15 06:02:54;;;;;;;19.88;9.63;;;2.90;99.90;;;3.41;100.00;101931.25;5057979;28;20029;-79
2022/01/15 06:05:20;;;;;;;18.80;10.18;;;2.90;99.90;;;3.51;100.00;101932.06;5059283;28;20369;-81
2022/01/15 06:07:46;;;;;;;20.63;9.85;;;2.90;99.90;;;3.53;100.00;101927.06;5059627;28;20037;-81
2022/01/15 06:10:12;;;;;;;20.08;10.18;;;2.90;99.90;;;3.47;100.00;101924.59;5059761;28;20408;-81
2022/01/15 06:12:43;;;;;;;20.25;9.93;;;2.90;99.90;;;3.48;100.00;101923.50;5057321;28;20033;-81
2022/01/15 06:15:12;;;;;;;17.13;10.25;;;2.90;99.90;;;3.48;100.00;101929.84;5074703;28;20033;-81
2022/01/15 06:17:39;;;;;;;20.20;9.43;;;2.90;99.90;;;3.44;100.00;101928.75;5058114;28;20461;-84
2022/01/15 06:20:08;;;;;;;21.52;10.77;;;2.90;99.90;;;3.48;100.00;101927.09;5057457;28;20025;-82
2022/01/15 06:22:34;;;;;;;20.60;9.98;;;2.80;99.90;;;3.48;100.00;101932.63;5058213;28;20036;-82
2022/01/15 06:25:03;;;;;;;21.60;10.57;;;2.90;99.90;;;3.48;100.00;101931.78;5059867;28;20052;-82
2022/01/15 06:27:33;;;;;;;20.38;10.75;;;2.90;99.90;;;3.39;100.00;101931.53;5060626;28;20424;-84
2022/01/15 06:29:59;;;;;;;19.25;10.45;;;2.80;99.90;;;3.44;100.00;101930.69;5083321;28;20487;-85
2022/01/15 06:32:28;;;;;;;18.48;9.88;;;2.80;99.90;;;3.42;100.00;101928.22;5064616;28;20037;-81
2022/01/15 06:34:55;;;;;;;17.63;9.98;;;2.80;99.90;;;3.44;100.00;101927.94;5060248;28;20035;-81
2022/01/15 06:37:21;;;;;;;20.42;10.63;;;2.80;99.90;;;3.41;100.00;101934.84;5060774;28;20039;-80
2022/01/15 06:39:48;;;;;;;22.63;11.20;;;2.80;99.90;;;3.42;100.00;101930.97;5077284;28;20090;-82
2022/01/15 06:42:14;;;;;;;18.27;10.07;;;2.80;99.90;;;3.39;100.00;101934.31;5058921;28;20037;-83
2022/01/15 06:44:40;;;;;;;20.95;11.10;;;2.80;99.90;;;3.22;100.00;101941.22;5059359;28;20085;-81
2022/01/15 06:47:06;;;;;;;23.10;10.80;;;2.70;99.90;;;3.30;100.00;101935.97;5059497;28;20036;-83
2022/01/15 06:49:32;;;;;;;20.50;10.60;;;2.70;99.90;;;3.27;100.00;101927.44;5079268;28;20038;-85
2022/01/15 06:51:58;;;;;;;20.48;10.18;;;2.70;99.90;;;3.28;100.00;101929.06;5077713;28;20028;-82
2022/01/15 06:54:25;;;;;;;21.55;10.75;;;2.70;99.90;;;3.31;100.00;101928.53;5058766;28;20504;-81
2022/01/15 06:56:51;;;;;;;23.13;12.38;;;2.70;99.90;;;3.27;100.00;101935.72;5059576;28;20029;-82
2022/01/15 06:59:17;;;;;;;23.33;12.15;;;2.70;99.90;;;3.19;100.00;101931.56;5077535;28;20044;-83
2022/01/15 07:01:42;;;;;;;22.20;11.38;;;2.60;99.90;;;3.17;100.00;101929.09;5059715;28;20036;-84
2022/01/15 07:04:08;;;;;;;26.13;11.95;;;2.60;99.90;;;3.18;100.00;101924.38;5059632;28;20032;-81
2022/01/15 07:06:34;;;;;;;22.65;12.02;;;2.60;99.90;;;3.19;100.00;101928.81;5060021;28;20037;-82
2022/01/15 07:09:00;;;;;;;25.17;13.00;;;2.60;99.90;;;3.17;100.00;101917.22;5059804;28;20059;-82
2022/01/15 07:11:26;;;;;;;24.58;13.35;;;2.60;99.90;;;3.17;100.00;101925.50;5059555;28;20477;-80
2022/01/15 07:13:52;;;;;;;27.42;12.90;;;2.60;99.90;;;3.19;100.00;101921.34;5058855;28;20024;-81
2022/01/15 07:16:17;;;;;;;26.65;13.70;;;2.60;99.90;;;3.21;100.00;101921.09;5078085;28;20024;-81
2022/01/15 07:18:43;;;;;;;28.73;13.90;;;2.60;99.90;;;3.15;100.00;101927.69;5060419;28;20499;-84
2022/01/15 07:21:10;;;;;;;32.47;15.13;;;2.60;99.90;;;3.01;100.00;101926.63;5060337;28;20446;-82
2022/01/15 07:23:36;;;;;;;30.40;13.75;;;2.50;99.90;;;2.91;100.00;101918.34;5060984;28;20295;-81
2022/01/15 07:26:03;;;;;;;32.25;14.90;;;2.50;99.90;;;2.91;100.00;101923.88;5057878;28;20025;-80
2022/01/15 07:28:31;;;;;;;29.40;13.70;;;2.40;99.90;;;2.83;100.00;101925.22;5074556;28;20485;-82
2022/01/15 07:30:58;;;;;;;29.48;12.90;;;2.40;99.90;;;2.84;100.00;101918.63;5057415;28;20071;-82
2022/01/15 07:33:24;;;;;;;29.42;12.93;;;2.40;99.90;;;2.76;100.00;101912.84;5057381;28;20047;-81
2022/01/15 07:35:52;;;;;;;28.77;12.93;;;2.30;99.90;;;2.76;100.00;101905.34;5057763;28;20285;-82
2022/01/15 07:38:20;;;;;;;28.42;12.32;;;2.30;99.90;;;2.82;100.00;101900.69;5057987;28;20029;-85
2022/01/15 07:40:47;;;;;;;30.58;11.95;;;2.30;99.90;;;2.75;100.00;101908.41;5074440;28;20029;-80
2022/01/15 07:43:14;;;;;;;27.20;11.50;;;2.30;99.90;;;2.84;100.00;101901.22;5057975;28;20091;-82
2022/01/15 07:45:40;;;;;;;24.85;11.25;;;2.30;99.90;;;2.77;100.00;101903.44;5058095;28;20038;-84
2022/01/15 07:48:06;;;;;;;23.38;10.95;;;2.30;99.90;;;2.80;100.00;101900.13;5058847;28;20033;-83
2022/01/15 07:50:32;;;;;;;27.08;10.45;;;2.30;99.90;;;2.79;100.00;101899.31;5057715;28;20032;-82
2022/01/15 07:52:59;;;;;;;26.27;11.25;;;2.30;99.90;;;2.77;100.00;101889.63;5073642;28;20025;-84
2022/01/15 07:55:26;;;;;;;27.08;11.02;;;2.20;99.90;;;2.66;100.00;101902.63;5074233;28;20021;-81
2022/01/15 07:57:52;;;;;;;24.42;10.60;;;2.20;99.90;;;2.72;100.00;101904.28;5073110;28;20540;-82
2022/01/15 08:00:19;;;;;;;26.60;10.40;;;2.20;99.90;;;2.84;100.00;101899.31;5056552;28;20477;-82
2022/01/15 08:02:45;;;;;;;19.48;8.85;;;2.30;99.90;;;2.89;100.00;101904.81;5055818;28;20150;-81
2022/01/15 08:05:13;;;;;;;22.48;9.73;;;2.30;99.90;;;2.88;100.00;101891.31;5056027;28;20033;-83
2022/01/15 08:07:40;;;;;;;17.98;7.97;;;2.30;99.90;;;2.80;100.00;101891.84;5056273;28;20045;-84
2022/01/15 08:10:08;;;;;;;20.38;9.18;;;2.20;99.90;;;2.76;100.00;101880.53;5057466;28;20037;-84
2022/01/15 08:12:48;;;;;;;19.70;8.32;;;2.20;99.90;;;2.71;100.00;101880.53;5055607;28;20477;-82
2022/01/15 08:15:20;;;;;;;21.83;8.95;;;2.20;99.90;;;2.68;100.00;101886.59;5055993;28;20060;-82
2022/01/15 08:17:47;;;;;;;25.48;9.93;;;2.20;99.90;;;2.63;100.00;101890.19;5056104;28;20033;-83
2022/01/15 08:20:14;;;;;;;24.52;9.70;;;2.20;99.90;;;2.69;100.00;101892.97;5055946;28;20029;-81
2022/01/15 08:22:42;;;;;;;26.88;11.35;;;2.20;99.90;;;2.67;100.00;101894.06;5056451;28;20047;-82
2022/01/15 08:25:10;;;;;;;26.83;10.20;;;2.20;99.90;;;2.70;100.00;101889.09;5058498;28;20073;-80
2022/01/15 08:27:36;;;;;;;27.08;10.20;;;2.20;99.90;;;2.75;100.00;101891.84;5059371;28;20036;-83
2022/01/15 08:30:06;;;;;;;22.17;8.73;;;2.20;99.90;;;2.81;100.00;101896.25;5059622;28;20037;-82
2022/01/15 08:32:32;;;;;;;22.67;9.77;;;2.20;99.90;;;2.89;100.00;101892.97;5076683;28;20032;-83
2022/01/15 08:34:58;;;;;;;20.50;9.25;;;2.30;99.90;;;2.94;100.00;101892.94;5059271;28;20128;-81
2022/01/15 08:37:24;;;;;;;24.98;11.57;;;2.30;99.90;;;2.83;100.00;101891.28;5076196;28;20040;-81
2022/01/15 08:39:50;;;;;;;25.13;10.38;;;2.30;99.90;;;2.92;100.00;101890.44;5060484;28;20032;-82
2022/01/15 08:42:16;;;;;;;26.60;11.43;;;2.30;99.90;;;2.95;100.00;101891.84;5059441;28;20481;-81
2022/01/15 08:44:44;;;;;;;27.05;11.65;;;2.30;99.90;;;2.80;100.00;101894.59;5058985;28;20028;-85
2022/01/15 08:47:10;;;;;;;21.88;10.45;;;2.30;99.90;;;2.84;100.00;101896.53;5064254;28;20032;-85
2022/01/15 08:49:40;;;;;;;23.83;11.15;;;2.30;99.90;;;2.92;100.00;101889.66;5060822;28;20032;-82
2022/01/15 08:52:06;;;;;;;25.55;11.88;;;2.30;99.90;;;2.97;100.00;101889.63;5058443;28;20116;-83
2022/01/15 08:54:33;;;;;;;33.28;12.38;;;2.30;99.90;;;2.98;100.00;101894.91;5076783;28;20035;-84
2022/01/15 08:56:59;;;;;;;29.58;12.68;;;2.30;99.90;;;2.98;100.00;101892.13;5078238;28;20021;-82
2022/01/15 08:59:27;;;;;;;33.25;13.55;;;2.30;99.90;;;2.96;100.00;101891.56;5063948;28;20036;-83
2022/01/15 09:01:59;;;;;;;25.98;11.30;;;2.40;99.90;;;2.92;100.00;101887.69;5064678;28;20028;-82
2022/01/15 09:04:26;;;;;;;32.45;12.60;;;2.40;99.90;;;2.91;100.00;101896.25;5077170;28;20038;-81
2022/01/15 09:06:53;;;;;;;33.85;13.10;;;2.40;99.90;;;2.87;100.00;101884.13;5058667;28;20039;-81
2022/01/15 09:09:19;;;;;;;27.25;11.77;;;2.40;99.90;;;2.95;100.00;101883.56;5076205;28;20046;-81
2022/01/15 09:11:45;;;;;;;29.52;12.35;;;2.40;99.90;;;2.98;100.00;101885.78;5058464;28;20132;-83
2022/01/15 09:14:12;;;;;;;26.55;12.18;;;2.40;99.90;;;2.94;100.00;101881.91;5057882;28;20032;-81
2022/01/15 09:16:39;;;;;;;35.00;14.02;;;2.30;99.90;;;2.87;100.00;101893.22;5058732;28;20028;-80
2022/01/15 09:19:06;;;;;;;35.00;14.27;;;2.30;99.90;;;2.78;100.00;101889.38;5075790;28;20392;-79
2022/01/15 09:21:34;;;;;;;30.95;12.77;;;2.30;99.90;;;2.87;100.00;101889.63;5077078;28;20028;-82
2022/01/15 09:24:00;;;;;;;26.40;12.90;;;2.30;99.90;;;2.86;100.00;101890.75;5058773;28;20040;-82
2022/01/15 09:27:00;;;;;;;32.70;13.32;;;2.30;99.90;;;2.88;100.00;101883.03;5058258;28;20032;-81
2022/01/15 09:32:12;;;;;;;28.27;13.05;;;2.30;99.90;;;3.02;100.00;101884.09;5077382;28;20040;-81
2022/01/15 09:34:38;;;;;;;29.48;11.82;;;2.30;99.90;;;3.44;100.00;101886.50;5057911;28;20031;-80
2022/01/15 09:37:07;;;;;;;29.73;13.05;;;2.40;99.90;;;3.32;100.00;101880.47;5081220;28;20029;-82
2022/01/15 09:39:33;;;;;;;28.58;12.40;;;2.30;99.90;;;3.48;100.00;101874.63;5064959;28;20024;-81
2022/01/15 09:41:59;;;;;;;29.33;12.85;;;2.30;99.90;;;3.47;100.00;101875.72;5063883;28;20040;-82
2022/01/15 09:44:26;;;;;;;38.97;12.57;;;2.40;99.90;;;3.30;100.00;101878.00;5064178;28;20204;-82
2022/01/15 09:46:53;;;;;;;32.00;14.48;;;2.30;99.90;;;3.47;100.00;101881.25;5083267;28;20028;-80
2022/01/15 09:49:23;;;;;;;30.52;12.15;;;2.30;99.90;;;3.45;100.00;101869.66;5064894;28;20059;-84
2022/01/15 09:51:50;;;;;;;29.67;13.02;;;2.40;99.90;;;3.57;100.00;101874.84;5080389;28;20119;-83
2022/01/15 09:54:18;;;;;;;33.85;13.75;;;2.40;99.90;;;3.60;100.00;101874.28;5063789;28;20033;-82
2022/01/15 09:56:46;;;;;;;29.05;12.18;;;2.40;99.90;;;3.78;100.00;101873.69;5063443;28;20059;-80
2022/01/15 09:59:13;;;;;;;30.10;13.55;;;2.50;99.90;;;3.90;100.00;101876.94;5063887;28;20511;-83
2022/01/15 10:01:39;;;;;;;41.90;13.45;;;2.60;99.90;;;3.84;100.00;101863.41;5080820;28;20043;-80
2022/01/15 10:04:05;;;;;;;27.83;12.27;;;2.60;99.90;;;3.77;100.00;101855.44;5064110;28;20029;-82
2022/01/15 10:06:31;;;;;;;28.83;12.20;;;2.50;99.90;;;3.80;100.00;101859.56;5064328;28;20028;-83
2022/01/15 10:09:09;;;;;;;27.95;11.85;;;2.60;99.90;;;3.86;100.00;101858.44;5064523;28;20397;-81
2022/01/15 10:11:51;;;;;;;31.13;13.07;;;2.60;99.90;;;3.70;100.00;101855.75;5063631;28;20032;-81
2022/01/15 10:14:41;;;;;;;29.77;12.98;;;2.60;99.90;;;3.76;100.00;101851.00;5081866;28;20027;-82
2022/01/15 10:17:35;;;;;;;29.75;13.13;;;2.60;99.90;;;3.97;100.00;101852.56;5064711;28;20162;-83
2022/01/15 10:20:10;;;;;;;28.08;13.55;;;2.70;99.90;;;3.91;100.00;101847.34;5063099;28;20029;-80
2022/01/15 10:22:56;;;;;;;25.00;12.27;;;2.70;99.90;;;4.01;100.00;101850.06;5064191;28;20109;-83
2022/01/15 10:25:23;;;;;;;;;;;2.80;99.90;;;4.17;100.00;101844.13;5064226;28;20029;-82
2022/01/15 10:27:55;;;;;;;;;;;2.90;99.90;;;3.98;100.00;101850.66;5064705;28;19914;-82
2022/01/15 10:30:28;;;;;;;29.90;10.98;;;2.90;99.90;;;4.08;100.00;101851.38;5065458;28;19908;-82
2022/01/15 10:33:09;;;;;;;30.85;13.32;;;2.90;99.90;;;4.23;100.00;101851.31;5065071;28;20361;-82
2022/01/15 10:35:43;;;;;;;23.15;10.30;;;3.00;99.90;;;4.31;100.00;101847.09;5083376;28;20025;-83
2022/01/15 10:38:16;;;;;;;27.45;11.63;;;3.00;99.90;;;4.37;100.00;101845.94;5066092;28;20396;-82
2022/01/15 10:40:46;;;;;;;26.92;12.30;;;3.10;99.90;;;4.43;100.00;101847.56;5065623;28;20551;-83